Terminal Aerodrome Forecast
Issued by NWS

Home | Current Version | Previous Version | Text Only | Print | Product List | Glossary On
Versions: 1 2 3 4 5 6 7 8 9 10 11 12 13 14 15 16 17 18 19 20 21 22
000
FTAK31 PAJN 241418 AAB
TAFAYA
TAF AMD
PAYA 241418Z 2414/2512 06005KT P6SM VCSH OVC040
      TEMPO 2414/2415 4SM -SHSN BR BKN025 OVC035
     FM241500 05004KT P6SM FEW005 SCT040 BKN070
     FM242100 05004KT P6SM SCT050
      AMD LTD TO CLD VIS AND WIND 2501/2509=

USA.gov is the U.S. government's official web portal to all federal, state and local government web resources and services.